createdAt,value
2022-07-30T00:02:11.278Z,20.11
2022-07-30T00:04:39.222Z,20.14
2022-07-30T00:07:07.260Z,20.15
2022-07-30T00:09:36.351Z,20.17
2022-07-30T00:12:06.229Z,20.19
2022-07-30T00:14:35.291Z,20.22
2022-07-30T00:17:05.137Z,20.25
2022-07-30T00:19:34.310Z,20.24
2022-07-30T00:22:03.629Z,20.23
2022-07-30T00:24:31.828Z,20.23
2022-07-30T00:27:00.052Z,20.26
2022-07-30T00:29:31.823Z,20.28
2022-07-30T00:31:59.896Z,20.32
2022-07-30T00:34:27.934Z,20.34
2022-07-30T00:36:57.409Z,20.35
2022-07-30T00:39:25.834Z,20.38
2022-07-30T00:41:59.783Z,20.41
2022-07-30T00:44:29.045Z,20.43
2022-07-30T00:46:57.807Z,20.45
2022-07-30T00:49:26.246Z,20.47
2022-07-30T00:51:54.590Z,20.46
2022-07-30T00:54:22.710Z,20.44
2022-07-30T00:56:50.926Z,20.41
2022-07-30T00:59:18.858Z,20.34
2022-07-30T01:01:46.844Z,20.28
2022-07-30T01:04:14.834Z,20.23
2022-07-30T01:06:43.020Z,20.19
2022-07-30T01:09:11.196Z,20.16
2022-07-30T01:11:42.543Z,20.16
2022-07-30T01:14:10.817Z,20.16
2022-07-30T01:16:42.938Z,20.16
2022-07-30T01:19:38.590Z,20.18
2022-07-30T01:22:21.576Z,20.17
2022-07-30T01:25:11.221Z,20.17
2022-07-30T01:27:51.154Z,20.18
2022-07-30T01:30:25.626Z,20.17
2022-07-30T01:32:55.389Z,20.16
2022-07-30T01:35:26.007Z,20.12
2022-07-30T01:37:55.853Z,20.07
2022-07-30T01:40:25.977Z,20.03
2022-07-30T01:42:57.342Z,20.00
2022-07-30T01:45:26.839Z,19.97
2022-07-30T01:47:58.366Z,19.93
2022-07-30T01:50:28.576Z,19.89
2022-07-30T01:52:58.411Z,19.85
2022-07-30T01:55:32.999Z,19.84
2022-07-30T01:58:02.320Z,19.84
2022-07-30T02:00:33.496Z,19.84
2022-07-30T02:03:01.703Z,19.84
2022-07-30T02:05:34.351Z,19.82
2022-07-30T02:08:31.550Z,19.80
2022-07-30T02:11:08.971Z,19.78
2022-07-30T02:13:54.987Z,19.77
2022-07-30T02:16:23.003Z,19.75
2022-07-30T02:18:58.619Z,19.73
2022-07-30T02:21:36.513Z,19.70
2022-07-30T02:24:08.634Z,19.68
2022-07-30T02:26:39.126Z,19.65
2022-07-30T02:29:11.379Z,19.61
2022-07-30T02:31:41.872Z,19.60
2022-07-30T02:34:13.441Z,19.58
2022-07-30T02:36:44.768Z,19.58
2022-07-30T02:39:16.337Z,19.57
2022-07-30T02:41:49.324Z,19.57
2022-07-30T02:44:20.345Z,19.55
2022-07-30T02:46:50.579Z,19.55
2022-07-30T02:49:31.382Z,19.56
2022-07-30T02:52:03.306Z,19.57
2022-07-30T02:54:32.487Z,19.58
2022-07-30T02:57:02.628Z,19.60
2022-07-30T02:59:33.933Z,19.65
2022-07-30T03:02:04.813Z,19.67
2022-07-30T03:04:34.034Z,19.64
2022-07-30T03:07:07.930Z,19.61
2022-07-30T03:09:50.703Z,19.61
2022-07-30T03:12:21.972Z,19.60
2022-07-30T03:14:51.929Z,19.61
2022-07-30T03:17:24.041Z,19.63
2022-07-30T03:19:55.188Z,19.62
2022-07-30T03:22:29.968Z,19.62
2022-07-30T03:25:02.728Z,19.62
2022-07-30T03:27:31.891Z,19.59
2022-07-30T03:30:02.604Z,19.56
2022-07-30T03:32:32.471Z,19.55
2022-07-30T03:35:05.948Z,19.53
2022-07-30T03:37:37.176Z,19.52
2022-07-30T03:40:08.554Z,19.51
2022-07-30T03:42:37.718Z,19.52
2022-07-30T03:45:08.959Z,19.55
2022-07-30T03:47:39.556Z,19.60
2022-07-30T03:50:08.424Z,19.65
2022-07-30T03:52:41.029Z,19.72
2022-07-30T03:55:12.614Z,19.75
2022-07-30T03:57:52.172Z,19.80
2022-07-30T04:00:25.619Z,19.86
2022-07-30T04:02:54.494Z,19.96
2022-07-30T04:05:28.642Z,20.08
2022-07-30T04:08:09.507Z,20.21
2022-07-30T04:10:39.529Z,20.34
2022-07-30T04:13:27.502Z,20.48
2022-07-30T04:16:39.618Z,20.59
2022-07-30T04:19:13.606Z,20.69
2022-07-30T04:21:42.955Z,20.74
2022-07-30T04:24:13.190Z,20.77
2022-07-30T04:26:41.734Z,20.82
2022-07-30T04:29:16.707Z,20.88
2022-07-30T04:31:48.057Z,20.97
2022-07-30T04:34:36.910Z,21.02
2022-07-30T04:37:07.336Z,21.00
2022-07-30T04:39:36.303Z,20.92
2022-07-30T04:42:04.437Z,20.85
2022-07-30T04:44:37.777Z,20.87
2022-07-30T04:47:26.902Z,20.94
2022-07-30T04:50:18.279Z,21.01
2022-07-30T04:52:47.687Z,21.06
2022-07-30T04:55:21.010Z,21.07
2022-07-30T04:57:52.988Z,21.09
2022-07-30T05:00:22.139Z,21.12
2022-07-30T05:02:52.946Z,21.15
2022-07-30T05:05:21.961Z,21.14
2022-07-30T05:07:50.895Z,21.15
2022-07-30T05:10:19.265Z,21.16
2022-07-30T05:12:47.592Z,21.14
2022-07-30T05:15:19.982Z,21.10
2022-07-30T05:17:49.088Z,21.11
2022-07-30T05:20:17.160Z,21.15
2022-07-30T05:22:58.201Z,21.18
2022-07-30T05:25:26.378Z,21.23
2022-07-30T05:27:58.341Z,21.31
2022-07-30T05:30:27.802Z,21.38
2022-07-30T05:32:57.700Z,21.43
2022-07-30T05:35:29.623Z,21.43
2022-07-30T05:37:58.885Z,21.39
2022-07-30T05:40:28.784Z,21.42
2022-07-30T05:43:15.207Z,21.44
2022-07-30T05:45:43.259Z,21.43
2022-07-30T05:48:11.225Z,21.34
2022-07-30T05:50:39.271Z,21.27
2022-07-30T05:53:07.238Z,21.20
2022-07-30T05:56:04.100Z,21.15
2022-07-30T05:58:56.325Z,21.11
2022-07-30T06:01:36.395Z,21.12
2022-07-30T06:04:09.777Z,21.14
2022-07-30T06:06:43.777Z,21.18
2022-07-30T06:09:12.032Z,21.22
2022-07-30T06:11:40.014Z,21.27
2022-07-30T06:14:08.472Z,21.33
2022-07-30T06:16:36.435Z,21.32
2022-07-30T06:19:04.665Z,21.28
2022-07-30T06:22:01.563Z,21.24
2022-07-30T06:24:32.908Z,21.27
2022-07-30T06:27:07.526Z,21.34
2022-07-30T06:29:35.566Z,21.41
2022-07-30T06:32:03.767Z,21.48
2022-07-30T06:34:31.675Z,21.54
2022-07-30T06:37:02.112Z,21.53
2022-07-30T06:39:56.341Z,21.54
2022-07-30T06:42:21.838Z,21.57
2022-07-30T06:45:11.036Z,21.58
2022-07-30T06:48:04.039Z,21.54
2022-07-30T06:50:33.198Z,21.53
2022-07-30T06:53:01.231Z,21.45
2022-07-30T06:55:37.938Z,21.34
2022-07-30T06:58:05.915Z,21.24
2022-07-30T07:00:59.888Z,21.14
2022-07-30T07:03:39.884Z,21.10
2022-07-30T07:06:09.331Z,21.08
2022-07-30T07:08:38.415Z,21.07
2022-07-30T07:11:07.196Z,21.06
2022-07-30T07:13:44.403Z,21.11
2022-07-30T07:16:14.681Z,21.16
2022-07-30T07:18:45.312Z,21.19
2022-07-30T07:21:13.371Z,21.20
2022-07-30T07:23:42.293Z,21.23
2022-07-30T07:26:32.344Z,21.28
2022-07-30T07:29:04.996Z,21.33
2022-07-30T07:32:05.398Z,21.30
2022-07-30T07:34:22.023Z,21.23
2022-07-30T07:36:50.164Z,21.14
2022-07-30T07:39:19.819Z,21.15
2022-07-30T07:41:49.584Z,21.20
2022-07-30T07:44:21.644Z,21.31
2022-07-30T07:46:49.869Z,21.45
2022-07-30T07:49:18.229Z,21.51
2022-07-30T07:51:50.449Z,21.63
2022-07-30T07:54:22.851Z,21.76
2022-07-30T07:56:57.410Z,21.86
2022-07-30T07:59:54.493Z,21.85
2022-07-30T08:02:27.157Z,22.04
2022-07-30T08:04:59.646Z,22.29
2022-07-30T08:07:48.078Z,22.51
2022-07-30T08:10:34.362Z,22.82
2022-07-30T08:13:52.920Z,23.14
2022-07-30T08:16:32.320Z,23.26
2022-07-30T08:19:19.166Z,23.42
2022-07-30T08:21:59.751Z,23.62
2022-07-30T08:24:31.837Z,23.69
2022-07-30T08:27:00.692Z,23.70
2022-07-30T08:29:30.295Z,23.85
2022-07-30T08:31:58.544Z,24.06
2022-07-30T08:34:27.451Z,24.29
2022-07-30T08:36:56.508Z,24.44
2022-07-30T08:39:24.742Z,24.57
2022-07-30T08:41:52.806Z,24.33
2022-07-30T08:44:22.001Z,24.32
2022-07-30T08:46:56.348Z,24.24
2022-07-30T08:49:50.589Z,24.40
2022-07-30T08:52:23.547Z,24.36
2022-07-30T08:55:02.183Z,24.48
2022-07-30T08:57:31.617Z,24.56
2022-07-30T09:00:01.581Z,24.58
2022-07-30T09:02:33.394Z,24.45
2022-07-30T09:05:06.164Z,24.32
2022-07-30T09:07:35.729Z,24.18
2022-07-30T09:10:10.345Z,24.11
2022-07-30T09:12:43.825Z,24.03
2022-07-30T09:15:14.498Z,23.99
2022-07-30T09:17:50.408Z,24.04
2022-07-30T09:20:21.277Z,24.17
2022-07-30T09:22:52.554Z,24.40
2022-07-30T09:25:48.047Z,24.70
2022-07-30T09:28:39.027Z,24.84
2022-07-30T09:31:17.692Z,24.95
2022-07-30T09:34:04.451Z,25.26
2022-07-30T09:37:28.217Z,25.60
2022-07-30T09:40:35.260Z,26.01
2022-07-30T09:43:32.429Z,26.62
2022-07-30T09:46:13.017Z,27.13
2022-07-30T09:48:41.833Z,27.49
2022-07-30T09:54:01.379Z,27.81
2022-07-30T09:56:30.429Z,27.83
2022-07-30T09:58:59.677Z,28.02
2022-07-30T10:01:50.003Z,28.24
2022-07-30T10:04:52.608Z,28.51
2022-07-30T10:07:25.175Z,28.54
2022-07-30T10:10:00.509Z,28.55
2022-07-30T10:12:30.047Z,28.63
2022-07-30T10:15:02.236Z,28.62
2022-07-30T10:17:38.759Z,28.66
2022-07-30T10:20:21.584Z,28.57
2022-07-30T10:23:09.306Z,28.52
2022-07-30T10:25:49.578Z,28.56
2022-07-30T10:28:43.768Z,28.78
2022-07-30T10:31:49.037Z,29.01
2022-07-30T10:34:00.669Z,29.24
2022-07-30T10:36:30.151Z,29.28
2022-07-30T10:38:58.621Z,29.28
2022-07-30T10:42:04.199Z,29.42
2022-07-30T10:44:55.988Z,29.60
2022-07-30T10:47:29.843Z,29.66
2022-07-30T10:50:11.772Z,29.73
2022-07-30T10:52:58.388Z,29.90
2022-07-30T10:55:38.925Z,30.03
2022-07-30T10:58:14.455Z,30.09
2022-07-30T11:00:52.939Z,30.16
2022-07-30T11:03:41.526Z,30.26
2022-07-30T11:06:15.979Z,30.42
2022-07-30T11:08:48.016Z,30.64
2022-07-30T11:11:59.676Z,30.72
2022-07-30T11:14:10.478Z,30.70
2022-07-30T11:16:38.530Z,30.76
2022-07-30T11:22:25.645Z,30.92
2022-07-30T11:24:54.613Z,30.99
2022-07-30T11:27:41.186Z,30.95
2022-07-30T11:30:19.033Z,30.84
2022-07-30T11:32:51.925Z,30.70
2022-07-30T11:35:34.580Z,30.60
2022-07-30T11:38:09.052Z,30.49
2022-07-30T11:41:02.848Z,30.47
2022-07-30T11:43:36.294Z,30.46
2022-07-30T11:46:29.180Z,30.40
2022-07-30T11:49:01.529Z,30.38
2022-07-30T11:51:41.275Z,30.37
2022-07-30T11:54:12.755Z,30.35
2022-07-30T11:57:02.084Z,30.23
2022-07-30T11:59:32.438Z,30.12
2022-07-30T12:02:02.349Z,30.00
2022-07-30T12:04:30.971Z,29.90
2022-07-30T12:06:59.810Z,29.82
2022-07-30T12:09:32.203Z,29.72
2022-07-30T12:12:02.640Z,29.60
2022-07-30T12:14:39.946Z,29.56
2022-07-30T12:17:15.295Z,29.49
2022-07-30T12:19:52.641Z,29.43
2022-07-30T12:22:20.913Z,29.40
2022-07-30T12:24:49.508Z,29.37
2022-07-30T12:27:17.939Z,29.32
2022-07-30T12:29:46.005Z,29.25
2022-07-30T12:32:14.020Z,29.13
2022-07-30T12:34:54.997Z,28.99
2022-07-30T12:37:23.140Z,28.79
2022-07-30T12:40:12.947Z,28.64
2022-07-30T12:42:53.762Z,28.45
2022-07-30T12:45:51.791Z,28.30
2022-07-30T12:48:20.588Z,28.12
2022-07-30T12:51:05.487Z,28.00
2022-07-30T12:53:35.136Z,27.82
2022-07-30T12:56:17.169Z,27.67
2022-07-30T12:58:45.878Z,27.38
2022-07-30T13:01:14.642Z,27.08
2022-07-30T13:03:43.846Z,26.96
2022-07-30T13:06:18.076Z,26.98
2022-07-30T13:08:46.817Z,27.13
2022-07-30T13:11:16.145Z,27.24
2022-07-30T13:13:44.684Z,27.40
2022-07-30T13:16:13.472Z,27.57
2022-07-30T13:18:41.541Z,27.77
2022-07-30T13:21:11.468Z,28.02
2022-07-30T13:23:41.702Z,28.25
2022-07-30T13:26:10.472Z,28.49
2022-07-30T13:28:39.010Z,28.78
2022-07-30T13:31:07.805Z,29.11
2022-07-30T13:33:37.159Z,29.39
2022-07-30T13:36:09.160Z,29.57
2022-07-30T13:38:37.278Z,29.60
2022-07-30T13:41:05.785Z,29.57
2022-07-30T13:43:34.651Z,29.48
2022-07-30T13:46:04.232Z,29.49
2022-07-30T13:48:33.100Z,29.59
2022-07-30T13:51:02.085Z,29.65
2022-07-30T13:53:30.281Z,29.75
2022-07-30T13:56:01.806Z,29.86
2022-07-30T13:58:35.455Z,29.92
2022-07-30T14:01:07.351Z,29.96
2022-07-30T14:03:35.827Z,30.00
2022-07-30T14:06:10.843Z,30.04
2022-07-30T14:08:39.490Z,30.08
2022-07-30T14:11:08.492Z,30.01
2022-07-30T14:13:36.776Z,29.93
2022-07-30T14:16:10.661Z,29.92
2022-07-30T14:18:42.023Z,29.89
2022-07-30T14:21:10.056Z,29.82
2022-07-30T14:23:38.061Z,29.66
2022-07-30T14:26:06.222Z,29.53
2022-07-30T14:28:34.603Z,29.34
2022-07-30T14:31:03.641Z,29.14
2022-07-30T14:33:31.519Z,29.00
2022-07-30T14:36:00.564Z,28.88
2022-07-30T14:38:28.521Z,28.73
2022-07-30T14:40:56.741Z,28.56
2022-07-30T14:43:27.437Z,28.43
2022-07-30T14:45:55.312Z,28.29
2022-07-30T14:48:23.388Z,28.16
2022-07-30T14:51:13.018Z,28.02
2022-07-30T14:53:39.764Z,27.87
2022-07-30T14:56:08.765Z,27.74
2022-07-30T14:58:36.865Z,27.58
2022-07-30T15:01:16.080Z,27.42
2022-07-30T15:03:46.381Z,27.25
2022-07-30T15:06:15.592Z,27.02
2022-07-30T15:08:46.171Z,26.90
2022-07-30T15:11:14.733Z,26.70
2022-07-30T15:13:50.535Z,26.31
2022-07-30T15:16:19.222Z,25.86
2022-07-30T15:18:47.588Z,25.36
2022-07-30T15:21:16.782Z,24.89
2022-07-30T15:23:44.818Z,24.67
2022-07-30T15:26:12.915Z,24.43
2022-07-30T15:28:40.885Z,24.43
2022-07-30T15:31:09.329Z,24.39
2022-07-30T15:33:41.976Z,24.29
2022-07-30T15:36:10.669Z,24.05
2022-07-30T15:38:39.590Z,23.85
2022-07-30T15:41:13.074Z,23.57
2022-07-30T15:43:41.801Z,23.32
2022-07-30T15:46:09.926Z,23.20
2022-07-30T15:48:38.047Z,23.09
2022-07-30T15:51:06.683Z,22.96
2022-07-30T15:53:34.732Z,22.82
2022-07-30T15:56:02.863Z,22.72
2022-07-30T15:58:31.132Z,22.60
2022-07-30T16:00:59.116Z,22.44
2022-07-30T16:03:27.078Z,22.29
2022-07-30T16:05:54.938Z,22.10
2022-07-30T16:08:23.383Z,22.02
2022-07-30T16:10:52.080Z,21.93
2022-07-30T16:13:20.271Z,21.83
2022-07-30T16:15:48.388Z,21.78
2022-07-30T16:18:16.336Z,21.73
2022-07-30T16:20:44.419Z,21.69
2022-07-30T16:23:15.011Z,21.59
2022-07-30T16:25:45.026Z,21.56
2022-07-30T16:28:13.290Z,21.57
2022-07-30T16:30:51.422Z,21.59
2022-07-30T16:33:20.420Z,21.62
2022-07-30T16:35:51.035Z,21.62
2022-07-30T16:38:20.341Z,21.58
2022-07-30T16:40:48.415Z,21.53
2022-07-30T16:43:19.858Z,21.53
2022-07-30T16:45:48.561Z,21.52
2022-07-30T16:48:16.614Z,21.51
2022-07-30T16:50:44.954Z,21.50
2022-07-30T16:53:14.395Z,21.47
2022-07-30T16:55:44.140Z,21.36
2022-07-30T16:58:13.160Z,21.31
2022-07-30T17:00:41.575Z,21.30
2022-07-30T17:03:09.876Z,21.28
2022-07-30T17:05:45.222Z,21.28
2022-07-30T17:08:13.981Z,21.27
2022-07-30T17:10:42.147Z,21.26
2022-07-30T17:13:12.144Z,21.20
2022-07-30T17:15:40.215Z,21.12
2022-07-30T17:18:08.736Z,21.04
2022-07-30T17:20:36.919Z,20.98
2022-07-30T17:23:04.941Z,20.85
2022-07-30T17:25:33.422Z,20.74
2022-07-30T17:28:01.734Z,20.68
2022-07-30T17:30:30.605Z,20.56
2022-07-30T17:32:58.887Z,20.52
2022-07-30T17:35:27.235Z,20.49
2022-07-30T17:37:55.281Z,20.48
2022-07-30T17:40:30.363Z,20.48
2022-07-30T17:43:04.245Z,20.50
2022-07-30T17:45:35.079Z,20.52
2022-07-30T17:48:04.990Z,20.54
2022-07-30T17:50:34.250Z,20.57
2022-07-30T17:53:04.264Z,20.56
2022-07-30T17:55:35.522Z,20.54
2022-07-30T17:58:04.914Z,20.50
2022-07-30T18:00:35.396Z,20.47
2022-07-30T18:03:03.960Z,20.44
2022-07-30T18:05:32.172Z,20.41
2022-07-30T18:08:00.141Z,20.36
2022-07-30T18:10:28.240Z,20.34
2022-07-30T18:12:56.337Z,20.33
2022-07-30T18:15:24.283Z,20.32
2022-07-30T18:17:52.202Z,20.30
2022-07-30T18:20:20.120Z,20.31
2022-07-30T18:22:51.552Z,20.31
2022-07-30T18:25:20.114Z,20.31
2022-07-30T18:27:52.443Z,20.29
2022-07-30T18:30:20.392Z,20.28
2022-07-30T18:32:49.149Z,20.25
2022-07-30T18:35:17.726Z,20.21
2022-07-30T18:37:46.720Z,20.21
2022-07-30T18:40:23.496Z,20.20
2022-07-30T18:42:52.509Z,20.21
2022-07-30T18:45:20.652Z,20.19
2022-07-30T18:47:49.218Z,20.19
2022-07-30T18:50:17.965Z,20.15
2022-07-30T18:52:46.102Z,20.09
2022-07-30T18:55:14.840Z,20.03
2022-07-30T18:57:43.534Z,20.03
2022-07-30T19:00:34.149Z,20.01
2022-07-30T19:03:01.747Z,19.99
2022-07-30T19:05:30.090Z,19.93
2022-07-30T19:07:58.960Z,19.88
2022-07-30T19:10:27.577Z,19.86
2022-07-30T19:12:56.414Z,19.83
2022-07-30T19:15:25.168Z,19.83
2022-07-30T19:17:53.622Z,19.82
2022-07-30T19:20:23.597Z,19.79
2022-07-30T19:22:59.578Z,19.78
2022-07-30T19:25:28.489Z,19.75
2022-07-30T19:27:56.778Z,19.72
2022-07-30T19:30:24.838Z,19.73
2022-07-30T19:32:52.980Z,19.73
2022-07-30T19:35:21.144Z,19.75
2022-07-30T19:37:49.209Z,19.76
2022-07-30T19:40:18.967Z,19.75
2022-07-30T19:42:48.023Z,19.75
2022-07-30T19:45:20.834Z,19.77
2022-07-30T19:47:50.231Z,19.77
2022-07-30T19:50:18.141Z,19.77
2022-07-30T19:52:51.174Z,19.77
2022-07-30T19:55:35.832Z,19.77
2022-07-30T19:58:16.031Z,19.78
2022-07-30T20:00:48.491Z,19.81
2022-07-30T20:03:26.079Z,19.85
2022-07-30T20:06:00.893Z,19.86
2022-07-30T20:08:29.885Z,19.88
2022-07-30T20:10:59.457Z,19.89
2022-07-30T20:13:44.879Z,19.90
2022-07-30T20:16:16.144Z,19.88
2022-07-30T20:18:46.158Z,19.84
2022-07-30T20:21:16.311Z,19.78
2022-07-30T20:23:45.302Z,19.74
2022-07-30T20:26:15.006Z,19.70
2022-07-30T20:28:52.423Z,19.66
2022-07-30T20:31:21.596Z,19.64
2022-07-30T20:33:51.028Z,19.63
2022-07-30T20:36:19.926Z,19.62
2022-07-30T20:38:49.455Z,19.61
2022-07-30T20:41:17.736Z,19.62
2022-07-30T20:43:52.277Z,19.61
2022-07-30T20:46:23.155Z,19.61
2022-07-30T20:48:53.102Z,19.61
2022-07-30T20:51:21.446Z,19.59
2022-07-30T20:54:01.730Z,19.56
2022-07-30T20:56:29.731Z,19.55
2022-07-30T20:58:58.012Z,19.54
2022-07-30T21:01:28.763Z,19.54
2022-07-30T21:03:58.901Z,19.54
2022-07-30T21:06:26.819Z,19.54
2022-07-30T21:08:56.636Z,19.56
2022-07-30T21:11:25.403Z,19.57
2022-07-30T21:13:55.009Z,19.56
2022-07-30T21:16:25.452Z,19.55
2022-07-30T21:18:53.413Z,19.53
2022-07-30T21:21:28.928Z,19.50
2022-07-30T21:24:11.549Z,19.50
2022-07-30T21:26:43.441Z,19.49
2022-07-30T21:29:12.067Z,19.48
2022-07-30T21:32:11.428Z,19.48
2022-07-30T21:34:33.624Z,19.53
2022-07-30T21:37:04.295Z,19.61
2022-07-30T21:39:32.365Z,19.69
2022-07-30T21:42:09.377Z,19.72
2022-07-30T21:44:38.857Z,19.76
2022-07-30T21:47:10.434Z,19.80
2022-07-30T21:49:39.913Z,19.81
2022-07-30T21:52:08.891Z,19.81
2022-07-30T21:54:45.066Z,19.78
2022-07-30T22:00:22.547Z,19.70
2022-07-30T22:02:52.832Z,19.66
2022-07-30T22:05:23.829Z,19.66
2022-07-30T22:08:09.115Z,19.67
2022-07-30T22:10:41.402Z,19.67
2022-07-30T22:13:11.224Z,19.69
2022-07-30T22:15:42.762Z,19.69
2022-07-30T22:18:10.742Z,19.68
2022-07-30T22:20:38.689Z,19.68
2022-07-30T22:23:07.736Z,19.67
2022-07-30T22:25:39.870Z,19.67
2022-07-30T22:28:13.565Z,19.68
2022-07-30T22:30:42.360Z,19.67
2022-07-30T22:33:16.024Z,19.67
2022-07-30T22:35:46.877Z,19.66
2022-07-30T22:38:19.615Z,19.59
2022-07-30T22:40:47.965Z,19.53
2022-07-30T22:43:17.562Z,19.52
2022-07-30T22:45:48.721Z,19.51
2022-07-30T22:48:21.572Z,19.48
2022-07-30T22:50:55.468Z,19.46
2022-07-30T22:54:02.744Z,19.44
2022-07-30T22:56:15.593Z,19.40
2022-07-30T22:58:44.611Z,19.37
2022-07-30T23:01:12.647Z,19.33
2022-07-30T23:03:41.407Z,19.28
2022-07-30T23:06:14.738Z,19.26
2022-07-30T23:08:44.478Z,19.26
2022-07-30T23:11:12.593Z,19.27
2022-07-30T23:12:27.882Z,19.75
2022-07-30T23:13:40.708Z,19.25
2022-07-30T23:16:09.261Z,19.24
2022-07-30T23:18:37.247Z,19.26
2022-07-30T23:21:05.300Z,19.27
2022-07-30T23:23:34.421Z,19.27
2022-07-30T23:26:05.336Z,19.25
2022-07-30T23:28:33.505Z,19.25
2022-07-30T23:31:01.540Z,19.27
2022-07-30T23:33:30.734Z,19.32
2022-07-30T23:36:00.497Z,19.34
2022-07-30T23:38:29.066Z,19.32
2022-07-30T23:41:01.434Z,19.33
2022-07-30T23:43:32.928Z,19.31
2022-07-30T23:46:01.320Z,19.27
2022-07-30T23:48:29.397Z,19.23
2022-07-30T23:50:58.376Z,19.20
2022-07-30T23:53:26.393Z,19.19
2022-07-30T23:55:54.316Z,19.17
2022-07-30T23:58:22.389Z,19.16
